Time;durP1;ratioP1;P1;durP2;ratioP2;P2;SDS_P1;SDS_P2;PMS_P1;PMS_P2;Temp;Humidity;BMP_temperature;BMP_pressure;BME280_temperature;BME280_humidity;BME280_pressure;Samples;Min_cycle;Max_cycle;Signal;HPM_P1;HPM_P2
2021/04/26 00:00:56;;;;;;;14.20;2.65;;;;;;;3.75;100.00;102603.03;6154897;23;20357;-79
2021/04/26 00:03:22;;;;;;;8.23;2.25;;;;;;;3.78;100.00;102603.06;6155845;23;20037;-78
2021/04/26 00:05:48;;;;;;;9.50;2.33;;;;;;;3.73;100.00;102591.69;6156658;23;20060;-78
2021/04/26 00:08:13;;;;;;;5.30;2.17;;;;;;;3.59;100.00;102583.66;6183290;23;20005;-78
2021/04/26 00:10:38;;;;;;;13.43;2.95;;;;;;;3.61;100.00;102587.16;6156631;23;20091;-78
2021/04/26 00:13:04;;;;;;;6.60;1.88;;;;;;;3.60;100.00;102593.25;6154565;23;20100;-79
2021/04/26 00:15:30;;;;;;;9.13;2.42;;;;;;;3.62;100.00;102581.97;6183509;23;20001;-78
2021/04/26 00:17:56;;;;;;;8.68;2.05;;;;;;;3.62;100.00;102583.72;6186596;23;20383;-79
2021/04/26 00:20:27;;;;;;;13.80;2.33;;;;;;;3.61;100.00;102582.84;6185690;23;20005;-79
2021/04/26 00:23:00;;;;;;;10.60;2.70;;;;;;;3.61;100.00;102585.44;6159194;23;20013;-79
2021/04/26 00:25:26;;;;;;;10.60;2.17;;;;;;;3.48;100.00;102578.31;6188075;23;20005;-80
2021/04/26 00:27:52;;;;;;;9.65;1.95;;;;;;;3.51;100.00;102573.09;6187801;23;20435;-80
2021/04/26 00:30:20;;;;;;;11.73;2.42;;;;;;;3.57;100.00;102573.19;6189359;23;20445;-80
2021/04/26 00:32:46;;;;;;;14.52;2.33;;;;;;;3.58;100.00;102569.72;6186372;23;20011;-79
2021/04/26 00:35:12;;;;;;;9.25;2.42;;;;;;;3.56;100.00;102573.16;6187069;23;20004;-79
2021/04/26 00:37:38;;;;;;;5.10;1.77;;;;;;;3.47;100.00;102571.31;6184326;23;20028;-79
2021/04/26 00:40:06;;;;;;;9.48;2.17;;;;;;;3.45;100.00;102564.31;6156798;23;20001;-79
2021/04/26 00:42:31;;;;;;;9.90;2.67;;;;;;;3.56;100.00;102560.06;6183178;23;20474;-79
2021/04/26 00:44:57;;;;;;;10.98;2.58;;;;;;;3.54;100.00;102553.97;6160289;23;20005;-79
2021/04/26 00:47:22;;;;;;;6.30;2.13;;;;;;;3.57;100.00;102557.50;6166819;23;20016;-79
2021/04/26 00:49:48;;;;;;;9.43;1.95;;;;;;;3.56;100.00;102558.34;6167646;23;20027;-79
2021/04/26 00:52:13;;;;;;;12.70;2.40;;;;;;;3.49;100.00;102546.06;6189478;23;20119;-79
2021/04/26 00:54:39;;;;;;;4.20;2.58;;;;;;;3.48;100.00;102540.84;6188638;23;20009;-80
2021/04/26 00:57:04;;;;;;;13.55;2.88;;;;;;;3.35;100.00;102527.59;6184749;23;20414;-81
2021/04/26 00:59:31;;;;;;;11.15;3.35;;;;;;;3.46;100.00;102542.53;6158410;23;20005;-80
2021/04/26 01:01:57;;;;;;;13.57;1.83;;;;;;;3.42;100.00;102536.41;6183096;23;20422;-80
2021/04/26 01:04:22;;;;;;;13.77;2.25;;;;;;;3.37;100.00;102527.63;6184770;23;20059;-80
2021/04/26 01:06:47;;;;;;;8.10;2.72;;;;;;;3.36;100.00;102521.53;6185480;23;20338;-80
2021/04/26 01:09:12;;;;;;;5.22;1.63;;;;;;;3.36;100.00;102521.53;6183923;23;20059;-80
2021/04/26 01:11:50;;;;;;;7.38;2.17;;;;;;;3.33;100.00;102526.72;6184323;23;20798;-80
2021/04/26 01:14:33;;;;;;;8.50;1.80;;;;;;;3.32;100.00;102524.97;6185116;23;20470;-79
2021/04/26 01:17:06;;;;;;;10.50;2.28;;;;;;;3.32;100.00;102519.72;6155699;23;20063;-80
2021/04/26 01:20:25;;;;;;;8.55;2.05;;;;;;;3.35;100.00;102529.34;6183300;23;20032;-80
2021/04/26 01:23:28;;;;;;;10.35;1.90;;;;;;;3.33;100.00;102531.06;6063730;23;20095;-79
2021/04/26 01:25:54;;;;;;;13.10;2.10;;;;;;;3.25;100.00;102519.63;6183221;23;20541;-79
2021/04/26 01:28:31;;;;;;;6.78;1.70;;;;;;;3.27;100.00;102518.81;6155453;23;20001;-79
2021/04/26 01:31:02;;;;;;;14.80;2.13;;;;;;;3.23;100.00;102522.22;6183514;23;20009;-79
2021/04/26 01:33:30;;;;;;;9.27;2.83;;;;;;;3.26;100.00;102524.00;6182688;23;20028;-79
2021/04/26 01:36:01;;;;;;;10.35;2.70;;;;;;;3.23;100.00;102516.13;6182235;23;20005;-78
2021/04/26 01:38:34;;;;;;;12.63;2.25;;;;;;;3.24;100.00;102523.97;6180401;23;20020;-79
2021/04/26 01:41:01;;;;;;;6.90;1.83;;;;;;;3.22;100.00;102522.22;6181287;23;20609;-79
2021/04/26 01:43:28;;;;;;;10.35;2.25;;;;;;;3.25;100.00;102528.34;6180583;23;20683;-79
2021/04/26 01:45:57;;;;;;;3.58;1.90;;;;;;;3.18;100.00;102512.59;6181726;23;20009;-79
2021/04/26 01:48:25;;;;;;;11.18;1.80;;;;;;;3.22;100.00;102515.25;6180991;23;20012;-78
2021/04/26 01:50:50;;;;;;;14.98;2.30;;;;;;;3.21;100.00;102510.00;6155414;23;20012;-78
2021/04/26 01:53:17;;;;;;;9.73;2.53;;;;;;;3.13;100.00;102495.97;6154303;23;20009;-79
2021/04/26 01:55:45;;;;;;;9.73;1.92;;;;;;;3.19;100.00;102491.69;6182858;23;20008;-79
2021/04/26 01:58:10;;;;;;;4.57;2.28;;;;;;;3.18;100.00;102503.00;6180690;23;20016;-79
2021/04/26 02:00:36;;;;;;;10.25;2.40;;;;;;;3.17;100.00;102505.59;6181457;23;20351;-79
2021/04/26 02:03:02;;;;;;;13.18;2.17;;;;;;;3.24;100.00;102495.22;6181386;23;20012;-80
2021/04/26 02:05:30;;;;;;;10.88;2.53;;;;;;;3.16;100.00;102496.00;6182166;23;20005;-81
2021/04/26 02:07:56;;;;;;;9.27;2.25;;;;;;;3.13;100.00;102488.13;6184302;23;20048;-80
2021/04/26 02:10:28;;;;;;;10.75;2.35;;;;;;;3.13;100.00;102480.28;6183554;23;20503;-79
2021/04/26 02:12:54;;;;;;;15.45;3.28;;;;;;;3.09;100.00;102488.09;6180154;23;20096;-80
2021/04/26 02:15:21;;;;;;;11.70;2.25;;;;;;;2.99;100.00;102486.22;6183051;23;20076;-80
2021/04/26 02:17:47;;;;;;;8.00;2.75;;;;;;;3.03;100.00;102490.63;6181218;23;20027;-79
2021/04/26 02:20:15;;;;;;;8.55;2.45;;;;;;;3.03;100.00;102476.69;6154674;23;20730;-79
2021/04/26 02:22:41;;;;;;;14.45;2.78;;;;;;;3.06;100.00;102482.84;6180994;23;20000;-79
2021/04/26 02:25:10;;;;;;;7.90;2.70;;;;;;;2.99;100.00;102469.66;6156263;23;20005;-79
2021/04/26 02:27:35;;;;;;;10.63;2.92;;;;;;;2.98;100.00;102467.91;6183123;23;20001;-79
2021/04/26 02:30:01;;;;;;;4.80;1.83;;;;;;;2.94;100.00;102467.00;6182128;23;20435;-79
2021/04/26 02:32:31;;;;;;;7.35;2.05;;;;;;;2.94;100.00;102468.72;6182353;23;20013;-79
2021/04/26 02:35:00;;;;;;;8.82;2.80;;;;;;;2.91;100.00;102463.44;6182182;23;20080;-79
2021/04/26 02:37:49;;;;;;;8.18;2.30;;;;;;;2.84;100.00;102462.50;6184831;23;20776;-79
2021/04/26 02:40:16;;;;;;;11.25;2.40;;;;;;;2.83;100.00;102469.47;6184305;23;20016;-79
2021/04/26 02:42:45;;;;;;;9.10;2.95;;;;;;;2.79;100.00;102458.94;6183595;23;20011;-78
2021/04/26 02:45:14;;;;;;;9.48;1.80;;;;;;;2.76;100.00;102453.69;6184540;23;20013;-79
2021/04/26 02:47:41;;;;;;;7.85;2.58;;;;;;;2.81;100.00;102446.78;6184355;23;20008;-79
2021/04/26 02:50:08;;;;;;;5.95;2.17;;;;;;;2.76;100.00;102459.81;6184754;23;20449;-79
2021/04/26 02:52:34;;;;;;;10.57;2.17;;;;;;;2.72;100.00;102452.78;6184621;23;20009;-79
2021/04/26 02:55:03;;;;;;;13.20;2.20;;;;;;;2.73;100.00;102459.75;6159202;23;20009;-79
2021/04/26 02:57:33;;;;;;;15.95;2.67;;;;;;;2.69;100.00;102451.84;6186189;23;20016;-79
2021/04/26 03:00:01;;;;;;;11.32;2.40;;;;;;;2.77;100.00;102458.94;6184643;23;20063;-79
2021/04/26 03:02:27;;;;;;;5.80;2.10;;;;;;;2.69;100.00;102444.91;6155199;23;20743;-79
2021/04/26 03:04:52;;;;;;;5.22;1.85;;;;;;;2.65;100.00;102445.69;6186553;23;20005;-79
2021/04/26 03:07:19;;;;;;;7.95;2.30;;;;;;;2.60;100.00;102448.25;6198132;23;20009;-79
2021/04/26 03:09:46;;;;;;;7.75;2.03;;;;;;;2.59;100.00;102449.09;6188132;23;20005;-80
2021/04/26 03:12:12;;;;;;;4.85;2.50;;;;;;;2.54;100.00;102442.94;6163088;23;20036;-80
2021/04/26 03:14:40;;;;;;;7.05;2.33;;;;;;;2.59;100.00;102436.06;6186084;23;20327;-79
2021/04/26 03:17:05;;;;;;;5.75;2.17;;;;;;;2.53;100.00;102437.72;6181181;23;20009;-79
2021/04/26 03:19:32;;;;;;;10.85;2.08;;;;;;;2.50;100.00;102435.06;6181882;23;20001;-79
2021/04/26 03:21:58;;;;;;;6.35;2.80;;;;;;;2.47;100.00;102429.81;6156209;23;20005;-79
2021/04/26 03:24:24;;;;;;;8.48;2.35;;;;;;;2.51;100.00;102418.53;6156165;23;20319;-78
2021/04/26 03:26:51;;;;;;;7.93;2.38;;;;;;;2.51;100.00;102422.03;6160721;23;20001;-80
2021/04/26 03:29:19;;;;;;;10.07;2.80;;;;;;;2.46;100.00;102421.09;6186333;23;20012;-80
2021/04/26 03:31:47;;;;;;;10.13;2.97;;;;;;;2.47;100.00;102421.97;6185464;23;20054;-80
2021/04/26 03:34:13;;;;;;;14.40;2.58;;;;;;;2.52;100.00;102415.97;6186422;23;20024;-79
2021/04/26 03:36:40;;;;;;;12.50;2.00;;;;;;;2.53;100.00;102416.84;6165440;23;20004;-80
2021/04/26 03:39:08;;;;;;;9.45;2.15;;;;;;;2.38;100.00;102404.44;6193165;23;20058;-80
2021/04/26 03:41:34;;;;;;;6.50;2.63;;;;;;;2.46;100.00;102404.53;6166966;23;20673;-80
2021/04/26 03:43:59;;;;;;;8.40;2.30;;;;;;;2.43;100.00;102394.06;6192394;23;20015;-80
2021/04/26 03:46:24;;;;;;;7.95;2.17;;;;;;;2.36;100.00;102400.03;6185763;23;20005;-79
2021/04/26 03:48:50;;;;;;;7.72;2.60;;;;;;;2.38;100.00;102404.44;6184935;23;20036;-80
2021/04/26 03:51:15;;;;;;;8.18;3.03;;;;;;;2.32;100.00;102400.03;6185784;23;20649;-79
2021/04/26 03:53:40;;;;;;;12.77;2.50;;;;;;;2.29;100.00;102402.56;6160198;23;20005;-79
2021/04/26 03:56:05;;;;;;;13.48;2.40;;;;;;;2.37;100.00;102402.69;6187292;23;20009;-79
2021/04/26 03:58:31;;;;;;;4.20;2.00;;;;;;;2.34;100.00;102400.91;6187595;23;20029;-79
2021/04/26 04:00:56;;;;;;;8.70;2.22;;;;;;;2.33;100.00;102396.56;6161008;23;20338;-79
2021/04/26 04:03:21;;;;;;;5.57;2.30;;;;;;;2.34;100.00;102405.25;6186621;23;20001;-79
2021/04/26 04:05:47;;;;;;;11.75;2.53;;;;;;;2.28;100.00;102399.94;6185759;23;20013;-78
2021/04/26 04:08:12;;;;;;;7.95;2.28;;;;;;;2.28;100.00;102397.34;6185553;23;20031;-79
2021/04/26 04:10:37;;;;;;;8.43;2.17;;;;;;;2.30;100.00;102396.50;6188643;23;19997;-79
2021/04/26 04:13:03;;;;;;;6.18;2.17;;;;;;;2.29;100.00;102397.34;6184484;23;20054;-80
2021/04/26 04:15:29;;;;;;;8.57;2.65;;;;;;;2.26;100.00;102386.91;6183714;23;20001;-79
2021/04/26 04:17:54;;;;;;;10.85;3.35;;;;;;;2.24;100.00;102390.31;6154772;23;20005;-80
2021/04/26 04:20:20;;;;;;;6.85;2.15;;;;;;;2.23;100.00;102388.56;6181532;23;20001;-79
2021/04/26 04:22:45;;;;;;;4.00;2.17;;;;;;;2.16;100.00;102395.44;6180749;23;20076;-80
2021/04/26 04:25:12;;;;;;;10.18;3.53;;;;;;;2.22;100.00;102392.91;6155187;23;20099;-79
2021/04/26 04:27:37;;;;;;;12.60;2.72;;;;;;;2.23;100.00;102389.44;6154640;23;20070;-79
2021/04/26 04:30:08;;;;;;;6.45;2.45;;;;;;;2.22;100.00;102385.09;6155253;23;20431;-79
2021/04/26 04:32:34;;;;;;;7.43;2.40;;;;;;;2.24;100.00;102387.72;6155436;23;20020;-79
2021/04/26 04:35:00;;;;;;;9.95;2.53;;;;;;;2.26;100.00;102391.19;6183676;23;20012;-79
2021/04/26 04:37:26;;;;;;;11.50;2.83;;;;;;;2.17;100.00;102386.75;6181758;23;20016;-80
2021/04/26 04:39:51;;;;;;;14.07;2.15;;;;;;;2.24;100.00;102388.59;6183284;23;20724;-80
2021/04/26 04:42:16;;;;;;;7.70;2.42;;;;;;;2.29;100.00;102386.91;6182483;23;20024;-79
2021/04/26 04:44:41;;;;;;;8.25;2.00;;;;;;;2.23;100.00;102384.22;6185017;23;20095;-79
2021/04/26 04:47:07;;;;;;;10.23;2.28;;;;;;;2.30;100.00;102387.78;6181403;23;20001;-79
2021/04/26 04:49:32;;;;;;;4.20;2.33;;;;;;;2.27;100.00;102386.03;6182479;23;20318;-79
2021/04/26 04:51:57;;;;;;;6.25;2.53;;;;;;;2.32;100.00;102381.75;6183035;23;20005;-80
2021/04/26 04:54:25;;;;;;;5.53;1.83;;;;;;;2.39;100.00;102384.44;6184259;23;20015;-80
2021/04/26 04:56:52;;;;;;;13.63;2.85;;;;;;;2.39;100.00;102380.09;6194360;23;20025;-80
2021/04/26 04:59:19;;;;;;;8.68;2.10;;;;;;;2.39;100.00;102387.06;6196386;23;20011;-81
2021/04/26 05:01:45;;;;;;;6.45;2.13;;;;;;;2.42;100.00;102379.28;6189653;23;20112;-81
2021/04/26 05:04:11;;;;;;;8.07;2.53;;;;;;;2.39;100.00;102371.41;6191554;23;20304;-80
2021/04/26 05:06:36;;;;;;;9.10;2.47;;;;;;;2.42;100.00;102369.72;6180839;23;20039;-80
2021/04/26 05:09:01;;;;;;;6.80;2.50;;;;;;;2.48;100.00;102379.34;6153622;23;20009;-80
2021/04/26 05:11:27;;;;;;;6.68;1.98;;;;;;;2.57;100.00;102379.47;6153040;23;20091;-79
2021/04/26 05:13:52;;;;;;;13.75;3.20;;;;;;;2.54;100.00;102382.91;6178924;23;20009;-80
2021/04/26 05:16:17;;;;;;;7.80;2.60;;;;;;;2.59;100.00;102378.63;6179395;23;20023;-78
2021/04/26 05:18:43;;;;;;;6.28;2.13;;;;;;;2.63;100.00;102371.72;6181749;23;20008;-79
2021/04/26 05:21:08;;;;;;;8.10;2.45;;;;;;;2.70;100.00;102372.66;6184746;23;20103;-80
2021/04/26 05:23:33;;;;;;;5.22;2.20;;;;;;;2.75;100.00;102379.69;6188603;23;20102;-79
2021/04/26 05:25:59;;;;;;;4.03;1.92;;;;;;;2.74;100.00;102379.69;6180957;23;20442;-79
2021/04/26 05:28:24;;;;;;;10.07;2.60;;;;;;;2.82;100.00;102378.06;6180148;23;20008;-79
2021/04/26 05:30:49;;;;;;;13.40;2.35;;;;;;;2.84;100.00;102381.53;6180091;23;20349;-79
2021/04/26 05:33:17;;;;;;;6.35;2.50;;;;;;;2.84;100.00;102376.31;6178870;23;20009;-79
2021/04/26 05:35:42;;;;;;;6.93;2.50;;;;;;;2.89;100.00;102371.16;6180935;23;20024;-79
2021/04/26 05:38:09;;;;;;;10.10;2.40;;;;;;;2.93;100.00;102375.56;6179916;23;20008;-79
2021/04/26 05:40:35;;;;;;;7.60;2.28;;;;;;;3.06;100.00;102380.03;6154395;23;20269;-80
2021/04/26 05:43:00;;;;;;;6.03;2.15;;;;;;;3.08;100.00;102380.97;6153991;23;20012;-79
2021/04/26 05:45:25;;;;;;;15.27;3.10;;;;;;;3.10;100.00;102376.63;6180908;23;20005;-79
2021/04/26 05:47:51;;;;;;;7.13;2.45;;;;;;;3.13;100.00;102374.06;6180284;23;20005;-80
2021/04/26 05:50:16;;;;;;;10.80;2.47;;;;;;;3.23;100.00;102377.63;6155886;23;20514;-80
2021/04/26 05:52:41;;;;;;;6.80;2.10;;;;;;;3.33;100.00;102379.47;6183941;23;20005;-79
2021/04/26 05:55:07;;;;;;;11.73;2.10;;;;;;;3.36;100.00;102372.56;6183726;23;20035;-79
2021/04/26 05:57:32;;;;;;;10.18;2.63;;;;;;;3.39;100.00;102371.69;6153633;23;20062;-80
2021/04/26 05:59:57;;;;;;;7.28;2.17;;;;;;;3.47;100.00;102377.88;6180679;23;20008;-80
2021/04/26 06:02:23;;;;;;;5.13;2.13;;;;;;;3.52;100.00;102378.81;6183436;23;20004;-79
2021/04/26 06:04:48;;;;;;;8.23;2.30;;;;;;;3.51;100.00;102370.91;6183165;23;20346;-80
2021/04/26 06:07:13;;;;;;;10.02;3.10;;;;;;;3.59;100.00;102372.75;6166533;23;20052;-79
2021/04/26 06:09:39;;;;;;;10.60;2.22;;;;;;;3.70;100.00;102378.06;6195875;23;20521;-79
2021/04/26 06:12:05;;;;;;;7.68;2.50;;;;;;;3.68;100.00;102361.50;6165279;23;20025;-79
2021/04/26 06:14:30;;;;;;;6.07;2.40;;;;;;;3.81;100.00;102373.78;6186316;23;20021;-80
2021/04/26 06:16:56;;;;;;;8.30;2.95;;;;;;;3.85;100.00;102362.50;6186221;23;20060;-79
2021/04/26 06:19:21;;;;;;;9.00;2.35;;;;;;;4.10;100.00;102367.91;6175621;23;20104;-79
2021/04/26 06:21:46;;;;;;;8.10;2.25;;;;;;;4.06;100.00;102364.38;6184094;23;20107;-79
2021/04/26 06:24:12;;;;;;;9.48;2.47;;;;;;;4.17;100.00;102367.09;6181880;23;20071;-79
2021/04/26 06:26:37;;;;;;;10.43;2.80;;;;;;;4.21;100.00;102361.00;6155740;23;20032;-79
2021/04/26 06:29:03;;;;;;;14.07;2.47;;;;;;;4.31;100.00;102367.16;6179862;23;20005;-79
2021/04/26 06:31:28;;;;;;;10.60;3.47;;;;;;;4.34;100.00;102365.44;6152964;23;20031;-79
2021/04/26 06:33:53;;;;;;;16.33;3.78;;;;;;;4.37;100.00;102364.59;6182012;23;20008;-79
2021/04/26 06:36:18;;;;;;;11.18;2.53;;;;;;;4.40;100.00;102360.22;6179243;23;20024;-78
2021/04/26 06:38:44;;;;;;;11.63;3.22;;;;;;;4.48;100.00;102357.66;6179930;23;20108;-78
2021/04/26 06:41:09;;;;;;;15.18;3.58;;;;;;;4.54;100.00;102364.69;6177930;23;20040;-79
2021/04/26 06:43:34;;;;;;;12.02;3.53;;;;;;;4.64;100.00;102363.84;6176152;23;20005;-79
2021/04/26 06:46:00;;;;;;;8.40;2.25;;;;;;;4.79;100.00;102370.91;6156502;23;20076;-80
2021/04/26 06:48:25;;;;;;;19.17;3.60;;;;;;;4.89;100.00;102362.19;6157202;23;20327;-80
2021/04/26 06:50:51;;;;;;;9.93;2.63;;;;;;;5.02;100.00;102368.34;6182520;23;20114;-81
2021/04/26 06:53:16;;;;;;;6.00;1.88;;;;;;;5.13;100.00;102364.03;6153077;23;20019;-80
2021/04/26 06:55:42;;;;;;;7.85;2.20;;;;;;;5.30;100.00;102356.19;6181494;23;20009;-80
2021/04/26 06:58:07;;;;;;;11.48;2.42;;;;;;;5.33;100.00;102350.94;6179196;23;20033;-80
2021/04/26 07:00:33;;;;;;;9.38;2.42;;;;;;;5.60;100.00;102350.97;6181773;23;20411;-79
2021/04/26 07:02:59;;;;;;;14.40;2.80;;;;;;;5.64;100.00;102344.84;6179621;23;20012;-80
2021/04/26 07:05:24;;;;;;;9.10;3.47;;;;;;;5.68;100.00;102338.72;6179949;23;20013;-79
2021/04/26 07:07:50;;;;;;;9.73;2.03;;;;;;;5.80;100.00;102348.31;6178697;23;20009;-79
2021/04/26 07:10:16;;;;;;;5.82;2.30;;;;;;;5.73;100.00;102338.72;6179565;23;20037;-80
2021/04/26 07:12:42;;;;;;;9.35;2.80;;;;;;;5.90;100.00;102350.06;6179564;23;20028;-80
2021/04/26 07:15:09;;;;;;;9.40;2.50;;;;;;;5.92;100.00;102343.13;6156926;23;20339;-80
2021/04/26 07:17:35;;;;;;;4.78;2.20;;;;;;;6.05;100.00;102341.34;6181590;23;20001;-80
2021/04/26 07:20:03;;;;;;;7.28;2.10;;;;;;;6.20;100.00;102348.31;6181479;23;20005;-79
2021/04/26 07:22:28;;;;;;;12.38;2.72;;;;;;;6.31;100.00;102348.28;6182606;23;20004;-80
2021/04/26 07:24:54;;;;;;;8.35;2.38;;;;;;;6.29;100.00;102348.28;6183706;23;20019;-80
2021/04/26 07:27:19;;;;;;;10.60;2.72;;;;;;;6.32;100.00;102340.38;6165508;23;20005;-80
2021/04/26 07:29:44;;;;;;;5.43;2.22;;;;;;;6.51;100.00;102340.34;6188292;23;20005;-80
2021/04/26 07:32:10;;;;;;;6.28;2.40;;;;;;;6.59;100.00;102335.94;6183028;23;20051;-80
2021/04/26 07:34:35;;;;;;;8.55;2.50;;;;;;;6.67;100.00;102337.63;6156644;23;20015;-79
2021/04/26 07:37:01;;;;;;;9.88;2.35;;;;;;;6.79;100.00;102333.22;6180615;23;20083;-80
2021/04/26 07:39:26;;;;;;;7.72;2.45;;;;;;;6.84;100.00;102334.06;6182693;23;20639;-80
2021/04/26 07:41:52;;;;;;;7.15;2.35;;;;;;;7.14;100.00;102330.38;6181281;23;20007;-78
2021/04/26 07:44:18;;;;;;;5.50;2.13;;;;;;;7.24;100.00;102332.94;6181230;23;20039;-78
2021/04/26 07:46:43;;;;;;;10.25;2.25;;;;;;;7.29;100.00;102326.78;6155416;23;20020;-78
2021/04/26 07:49:09;;;;;;;7.93;2.85;;;;;;;7.26;100.00;102320.63;6182163;23;20320;-78
2021/04/26 07:51:34;;;;;;;15.80;2.95;;;;;;;7.52;100.00;102317.81;6181381;23;20012;-78
2021/04/26 07:53:59;;;;;;;10.30;1.95;;;;;;;7.60;100.00;102319.50;6180011;23;20035;-77
2021/04/26 07:56:24;;;;;;;7.25;1.90;;;;;;;7.51;100.00;102307.31;6179479;23;20082;-78
2021/04/26 07:58:50;;;;;;;10.48;2.10;;;;;;;7.56;100.00;102313.41;6153548;23;20001;-78
2021/04/26 08:01:15;;;;;;;6.57;2.00;;;;;;;7.80;100.00;102314.94;6179626;23;20088;-78
2021/04/26 08:03:40;;;;;;;8.20;2.35;;;;;;;8.04;100.00;102311.19;6180419;23;20005;-76
2021/04/26 08:06:06;;;;;;;8.93;2.85;;;;;;;8.14;100.00;102311.97;6179634;23;20008;-78
2021/04/26 08:08:32;;;;;;;12.90;3.83;;;;;;;8.22;100.00;102310.97;6179006;23;20066;-77
2021/04/26 08:10:57;;;;;;;13.68;2.70;;;;;;;8.28;100.00;102299.50;6179003;23;20008;-76
2021/04/26 08:13:23;;;;;;;9.50;3.33;;;;;;;8.07;100.00;102308.53;6153221;23;20092;-78
2021/04/26 08:15:48;;;;;;;7.72;2.67;;;;;;;8.31;100.00;102304.75;6152570;23;20055;-77
2021/04/26 08:18:13;;;;;;;4.55;2.00;;;;;;;8.12;100.00;102301.44;6179152;23;20058;-77
2021/04/26 08:20:39;;;;;;;6.38;2.00;;;;;;;8.27;100.00;102300.41;6152827;23;20423;-78
2021/04/26 08:23:04;;;;;;;4.47;1.90;;;;;;;8.51;100.00;102309.81;6178823;23;20013;-77
2021/04/26 08:25:29;;;;;;;4.70;2.40;;;;;;;8.35;100.00;102310.84;6179785;23;20013;-78
2021/04/26 08:27:56;;;;;;;5.63;1.83;;;;;;;8.09;100.00;102300.63;6180081;23;20001;-78
2021/04/26 08:30:22;;;;;;;8.57;2.10;;;;;;;8.13;100.00;102302.31;6152528;23;20005;-79
2021/04/26 08:32:47;;;;;;;2.33;1.50;;;;;;;8.27;100.00;102300.41;6178103;23;20071;-77
2021/04/26 08:35:13;;;;;;;23.85;4.72;;;;;;;8.36;100.00;102300.31;6179372;23;20092;-78
2021/04/26 08:37:38;;;;;;;8.88;2.03;;;;;;;8.45;100.00;102291.44;6153715;23;20013;-78
2021/04/26 08:40:04;;;;;;;8.50;2.22;;;;;;;8.49;100.00;102293.16;6178603;23;20173;-76
2021/04/26 08:42:29;;;;;;;5.70;1.65;;;;;;;8.72;100.00;102282.28;6178197;23;20415;-77
2021/04/26 08:44:55;;;;;;;7.47;2.20;;;;;;;8.81;100.00;102285.69;6177892;23;20051;-76
2021/04/26 08:47:23;;;;;;;5.20;2.00;;;;;;;8.92;100.00;102285.50;6178491;23;20005;-76
2021/04/26 08:49:48;;;;;;;9.05;1.88;;;;;;;8.81;100.00;102284.81;6179619;23;20009;-77
2021/04/26 08:52:14;;;;;;;10.88;3.15;;;;;;;9.07;100.00;102276.50;6152434;23;20005;-77
2021/04/26 08:54:39;;;;;;;4.63;1.80;;;;;;;9.27;100.00;102279.69;6180558;23;20084;-77
2021/04/26 08:57:05;;;;;;;6.97;1.67;;;;;;;9.38;100.00;102266.31;6179291;23;20032;-77
2021/04/26 08:59:30;;;;;;;6.25;1.95;;;;;;;9.50;100.00;102284.63;6178831;23;20005;-77
2021/04/26 09:02:05;;;;;;;5.82;2.03;;;;;;;9.50;100.00;102278.47;6178432;23;20004;-77
2021/04/26 09:04:36;;;;;;;6.33;2.17;;;;;;;9.73;100.00;102271.00;6178084;23;20093;-77
2021/04/26 09:07:04;;;;;;;7.03;2.00;;;;;;;9.76;100.00;102268.31;6178406;23;20008;-78
2021/04/26 09:09:37;;;;;;;7.70;2.58;;;;;;;9.98;100.00;102270.53;6177735;23;20412;-77
2021/04/26 09:12:04;;;;;;;10.10;3.00;;;;;;;9.99;100.00;102273.16;6176324;23;20486;-77
2021/04/26 09:14:40;;;;;;;6.10;2.20;;;;;;;9.96;100.00;102273.22;6181033;23;20009;-79
2021/04/26 09:17:37;;;;;;;5.72;2.50;;;;;;;10.45;100.00;102271.41;6153489;23;20366;-78
2021/04/26 09:20:03;;;;;;;8.82;2.08;;;;;;;10.72;100.00;102265.50;6178336;23;20016;-75
2021/04/26 09:22:44;;;;;;;8.20;2.07;;;;;;;10.80;100.00;102258.28;6176070;23;20009;-76
2021/04/26 09:25:36;;;;;;;5.32;2.15;;;;;;;10.86;100.00;102252.84;6177627;23;20219;-75
2021/04/26 09:28:16;;;;;;;10.25;2.50;;;;;;;10.85;100.00;102256.41;6176294;23;20015;-74
2021/04/26 09:30:57;;;;;;;8.48;1.98;;;;;;;10.77;94.80;102249.53;6179425;23;20575;-77
2021/04/26 09:33:37;;;;;;;10.05;2.92;;;;;;;11.03;95.21;102246.28;6150585;23;20013;-76
2021/04/26 09:36:23;;;;;;;4.00;2.13;;;;;;;11.11;94.59;102239.03;6151914;23;20096;-78
2021/04/26 09:38:52;;;;;;;10.17;2.37;;;;;;;11.51;92.48;102241.53;6178326;23;20005;-78
2021/04/26 09:41:23;;;;;;;6.80;2.97;;;;;;;11.70;89.48;102238.38;6178963;23;20009;-78
2021/04/26 09:43:53;;;;;;;5.32;2.25;;;;;;;11.83;87.74;102232.75;6178785;23;20013;-78
2021/04/26 09:46:21;;;;;;;10.45;4.07;;;;;;;11.94;91.98;102224.50;6179389;23;20008;-76
2021/04/26 09:48:52;;;;;;;5.22;2.00;;;;;;;11.94;88.97;102221.84;6180773;23;20009;-78
2021/04/26 09:51:21;;;;;;;10.05;2.25;;;;;;;12.17;82.48;102221.22;6180824;23;20526;-78
2021/04/26 09:53:54;;;;;;;5.82;2.72;;;;;;;11.87;84.48;102223.81;6154306;23;20008;-78
2021/04/26 09:56:23;;;;;;;11.77;3.10;;;;;;;12.09;83.12;102221.41;6179128;23;20051;-79
2021/04/26 09:58:50;;;;;;;7.30;2.53;;;;;;;12.02;85.44;102216.34;6180499;23;20001;-79
2021/04/26 10:01:16;;;;;;;5.70;2.45;;;;;;;12.18;84.21;102228.25;6180749;23;20044;-77
2021/04/26 10:03:42;;;;;;;4.82;2.05;;;;;;;12.10;84.61;102217.88;6180597;23;20012;-78
2021/04/26 10:06:07;;;;;;;10.35;2.35;;;;;;;12.50;81.49;102215.78;6153805;23;20658;-78
2021/04/26 10:08:33;;;;;;;7.30;2.53;;;;;;;12.81;80.53;102198.03;6154951;23;20036;-79
2021/04/26 10:10:58;;;;;;;10.73;2.40;;;;;;;12.78;81.38;102195.47;6179329;23;20016;-78
2021/04/26 10:13:25;;;;;;;8.85;2.65;;;;;;;12.62;79.33;102196.88;6180930;23;20024;-78
2021/04/26 10:15:55;;;;;;;4.68;2.15;;;;;;;12.82;76.83;102183.84;6153234;23;20005;-78
2021/04/26 10:18:27;;;;;;;9.93;2.70;;;;;;;13.13;76.45;102202.28;6180375;23;20129;-78
2021/04/26 10:20:52;;;;;;;8.45;3.45;;;;;;;13.29;73.26;102193.81;6154806;23;20062;-79
2021/04/26 10:23:32;;;;;;;7.60;2.55;;;;;;;13.46;70.69;102194.13;6177521;23;20008;-80
2021/04/26 10:25:58;;;;;;;4.43;2.22;;;;;;;13.63;68.57;102189.06;6177414;23;20040;-80
2021/04/26 10:28:35;;;;;;;10.00;2.50;;;;;;;13.14;68.16;102182.75;6176812;23;20009;-79
2021/04/26 10:31:13;;;;;;;12.27;2.35;;;;;;;14.06;69.90;102174.22;6175527;23;20005;-79
2021/04/26 10:33:58;;;;;;;9.13;2.67;;;;;;;14.69;63.05;102174.44;6175476;23;20005;-79
2021/04/26 10:36:44;;;;;;;6.72;2.40;;;;;;;15.45;57.92;102179.19;6176359;23;20012;-79
2021/04/26 10:39:17;;;;;;;5.55;2.38;;;;;;;16.27;49.15;102158.59;6176555;23;20012;-80
2021/04/26 10:41:45;;;;;;;9.57;2.88;;;;;;;15.86;45.72;102163.19;6176272;23;20116;-79
2021/04/26 10:44:11;;;;;;;4.80;2.38;;;;;;;16.81;42.02;102156.00;6150574;23;20067;-78
2021/04/26 10:46:36;;;;;;;11.18;2.65;;;;;;;17.61;40.12;102152.78;6149970;23;20005;-79
2021/04/26 10:49:07;;;;;;;12.05;4.22;;;;;;;18.10;37.59;102144.81;6178324;23;20012;-79
2021/04/26 10:51:35;;;;;;;3.25;2.13;;;;;;;18.25;36.88;102133.25;6176507;23;20009;-78
2021/04/26 10:54:01;;;;;;;10.10;2.90;;;;;;;20.07;32.80;102129.50;6151253;23;20164;-79
2021/04/26 10:56:29;;;;;;;9.38;2.53;;;;;;;18.88;35.37;102121.63;6178759;23;20012;-78
2021/04/26 10:59:22;;;;;;;6.22;2.78;;;;;;;19.76;34.14;102120.72;6151651;23;20008;-79
2021/04/26 11:01:49;;;;;;;5.78;2.50;;;;;;;19.20;34.29;102125.06;6178136;23;20041;-79
2021/04/26 11:04:15;;;;;;;14.48;3.70;;;;;;;19.79;31.26;102106.28;6176786;23;20009;-79
2021/04/26 11:06:59;;;;;;;9.45;3.05;;;;;;;19.34;33.27;102110.81;6179829;23;20832;-80
2021/04/26 11:09:39;;;;;;;3.47;2.58;;;;;;;20.03;31.22;102106.50;6178802;23;20331;-79
2021/04/26 11:12:29;;;;;;;7.90;2.60;;;;;;;19.85;32.65;102103.19;6143938;23;20021;-78
2021/04/26 11:15:11;;;;;;;6.40;2.75;;;;;;;20.08;32.87;102104.38;6134723;23;20690;-78
2021/04/26 11:17:37;;;;;;;6.60;2.50;;;;;;;20.97;30.54;102094.00;6154406;23;20010;-78
2021/04/26 11:20:12;;;;;;;7.35;2.90;;;;;;;21.38;28.99;102095.69;6155964;23;20305;-78
2021/04/26 11:22:38;;;;;;;9.20;2.50;;;;;;;20.83;30.20;102097.63;6148527;23;20782;-77
2021/04/26 11:25:04;;;;;;;8.32;3.42;;;;;;;20.63;30.71;102099.00;6151776;23;20005;-79